createdAt,value
2022-12-26T00:01:00.141Z,2.08
2022-12-26T00:03:27.895Z,2.20
2022-12-26T00:05:55.325Z,2.13
2022-12-26T00:08:22.838Z,2.13
2022-12-26T00:10:50.225Z,1.42
2022-12-26T00:13:38.716Z,1.42
2022-12-26T00:16:13.304Z,2.17
2022-12-26T00:18:41.006Z,1.75
2022-12-26T00:21:09.787Z,1.98
2022-12-26T00:23:38.077Z,1.98
2022-12-26T00:26:11.237Z,1.55
2022-12-26T00:28:38.862Z,1.75
2022-12-26T00:31:14.501Z,1.77
2022-12-26T00:33:42.137Z,2.00
2022-12-26T00:36:21.391Z,1.33
2022-12-26T00:38:50.546Z,1.38
2022-12-26T00:41:19.545Z,1.52
2022-12-26T00:43:47.419Z,1.33
2022-12-26T00:46:15.892Z,1.50
2022-12-26T00:48:43.640Z,1.10
2022-12-26T00:51:11.235Z,1.23
2022-12-26T00:53:38.758Z,1.25
2022-12-26T00:56:07.085Z,1.65
2022-12-26T00:58:34.500Z,1.20
2022-12-26T01:01:10.479Z,1.58
2022-12-26T01:03:38.021Z,1.23
2022-12-26T01:06:05.838Z,1.55
2022-12-26T01:08:33.337Z,1.38
2022-12-26T01:11:06.395Z,1.50
2022-12-26T01:13:34.344Z,1.33
2022-12-26T01:16:02.226Z,2.45
2022-12-26T01:18:30.257Z,1.67
2022-12-26T01:21:06.043Z,1.88
2022-12-26T01:23:33.575Z,1.80
2022-12-26T01:26:17.938Z,1.52
2022-12-26T01:28:49.336Z,1.95
2022-12-26T01:31:17.404Z,1.85
2022-12-26T01:33:44.889Z,1.30
2022-12-26T01:36:12.451Z,1.88
2022-12-26T01:38:39.863Z,1.60
2022-12-26T01:41:16.914Z,2.50
2022-12-26T01:44:06.439Z,1.80
2022-12-26T01:46:45.080Z,2.00
2022-12-26T01:49:41.342Z,2.33
2022-12-26T01:52:15.916Z,2.05
2022-12-26T01:54:48.454Z,2.42
2022-12-26T01:57:27.496Z,2.78
2022-12-26T01:59:56.972Z,2.22
2022-12-26T02:02:27.248Z,2.28
2022-12-26T02:05:15.083Z,2.10
2022-12-26T02:07:45.765Z,2.30
2022-12-26T02:10:22.185Z,1.88
2022-12-26T02:12:50.496Z,2.65
2022-12-26T02:15:18.768Z,2.92
2022-12-26T02:17:47.734Z,1.38
2022-12-26T02:20:25.281Z,1.65
2022-12-26T02:23:40.419Z,1.75
2022-12-26T02:26:35.544Z,1.65
2022-12-26T02:29:43.394Z,1.85
2022-12-26T02:32:45.700Z,1.75
2022-12-26T02:35:51.372Z,1.70
2022-12-26T02:38:24.190Z,1.88
2022-12-26T02:41:11.825Z,2.10
2022-12-26T02:44:29.771Z,2.78
2022-12-26T02:47:14.443Z,1.75
2022-12-26T02:50:27.361Z,2.30
2022-12-26T02:53:49.582Z,1.38
2022-12-26T02:56:57.523Z,2.60
2022-12-26T03:00:13.706Z,1.67
2022-12-26T03:03:12.499Z,1.95
2022-12-26T03:06:09.521Z,2.40
2022-12-26T03:09:01.877Z,1.92
2022-12-26T03:11:53.024Z,2.38
2022-12-26T03:14:29.808Z,2.35
2022-12-26T03:17:20.195Z,2.92
2022-12-26T03:20:02.604Z,2.47
2022-12-26T03:22:45.552Z,2.38
2022-12-26T03:25:52.689Z,2.78
2022-12-26T03:28:20.576Z,2.58
2022-12-26T03:30:51.063Z,2.08
2022-12-26T03:33:48.861Z,2.10
2022-12-26T03:36:54.997Z,2.38
2022-12-26T03:40:26.143Z,1.58
2022-12-26T03:43:50.830Z,2.08
2022-12-26T03:46:44.156Z,1.15
2022-12-26T03:49:47.362Z,1.10
2022-12-26T03:53:11.628Z,1.05
2022-12-26T03:56:20.806Z,1.13
2022-12-26T03:59:15.363Z,1.13
2022-12-26T04:02:04.306Z,0.70
2022-12-26T04:04:53.440Z,0.65
2022-12-26T04:07:56.411Z,0.60
2022-12-26T04:10:58.820Z,0.40
2022-12-26T04:14:18.150Z,0.30
2022-12-26T04:17:18.704Z,0.57
2022-12-26T04:20:02.334Z,0.40
2022-12-26T04:23:07.773Z,0.40
2022-12-26T04:26:16.351Z,0.40
2022-12-26T04:29:02.613Z,0.30
2022-12-26T04:32:10.939Z,0.30
2022-12-26T04:35:07.882Z,0.35
2022-12-26T04:37:57.633Z,0.40
2022-12-26T04:40:47.593Z,0.30
2022-12-26T04:43:47.079Z,0.28
2022-12-26T04:46:21.403Z,0.60
2022-12-26T04:49:09.208Z,0.40
2022-12-26T04:51:36.910Z,0.50
2022-12-26T04:54:05.125Z,0.38
2022-12-26T04:56:32.633Z,0.70
2022-12-26T04:59:00.070Z,0.30
2022-12-26T05:01:46.262Z,0.93
2022-12-26T05:04:34.829Z,0.43
2022-12-26T05:07:22.739Z,0.40
2022-12-26T05:09:53.329Z,0.43
2022-12-26T05:12:21.542Z,0.60
2022-12-26T05:14:48.987Z,0.40
2022-12-26T05:17:34.570Z,0.25
2022-12-26T05:20:20.408Z,0.40
2022-12-26T05:23:06.085Z,0.45
2022-12-26T05:25:54.635Z,0.40
2022-12-26T05:28:40.949Z,0.80
2022-12-26T05:31:16.596Z,0.50
2022-12-26T05:34:03.928Z,0.55
2022-12-26T05:36:36.129Z,0.30
2022-12-26T05:39:04.328Z,0.65
2022-12-26T05:41:31.776Z,0.40
2022-12-26T05:43:59.304Z,0.63
2022-12-26T05:46:26.838Z,0.77
2022-12-26T05:48:54.367Z,0.40
2022-12-26T05:51:21.848Z,0.45
2022-12-26T05:53:49.283Z,0.47
2022-12-26T05:56:17.766Z,0.88
2022-12-26T05:58:45.724Z,0.85
2022-12-26T06:01:16.171Z,0.55
2022-12-26T06:03:47.582Z,0.30
2022-12-26T06:06:16.320Z,0.60
2022-12-26T06:08:47.796Z,0.45
2022-12-26T06:11:16.159Z,0.52
2022-12-26T06:13:43.685Z,0.50
2022-12-26T06:16:14.487Z,0.50
2022-12-26T06:18:42.449Z,0.60
2022-12-26T06:21:12.393Z,0.60
2022-12-26T06:23:40.602Z,0.60
2022-12-26T06:26:10.254Z,0.30
2022-12-26T06:28:40.013Z,0.40
2022-12-26T06:31:14.594Z,1.00
2022-12-26T06:33:42.623Z,0.43
2022-12-26T06:36:12.342Z,0.60
2022-12-26T06:38:40.239Z,0.50
2022-12-26T06:41:09.716Z,0.60
2022-12-26T06:43:37.472Z,1.05
2022-12-26T06:46:06.466Z,0.63
2022-12-26T06:48:39.605Z,0.55
2022-12-26T06:51:13.514Z,0.82
2022-12-26T06:53:41.250Z,0.60
2022-12-26T06:56:15.121Z,0.40
2022-12-26T06:58:44.438Z,0.68
2022-12-26T07:01:17.344Z,0.60
2022-12-26T07:03:51.169Z,0.40
2022-12-26T07:06:39.739Z,0.40
2022-12-26T07:09:14.581Z,0.60
2022-12-26T07:11:48.528Z,0.65
2022-12-26T07:14:16.882Z,0.60
2022-12-26T07:16:45.149Z,0.38
2022-12-26T07:19:14.831Z,0.85
2022-12-26T07:21:42.900Z,0.60
2022-12-26T07:24:21.814Z,0.57
2022-12-26T07:26:49.810Z,0.60
2022-12-26T07:29:17.213Z,0.40
2022-12-26T07:31:44.809Z,0.70
2022-12-26T07:34:12.277Z,0.57
2022-12-26T07:36:40.319Z,0.30
2022-12-26T07:39:08.216Z,0.40
2022-12-26T07:41:54.371Z,0.52
2022-12-26T07:44:21.722Z,0.63
2022-12-26T07:46:49.398Z,0.60
2022-12-26T07:49:16.854Z,0.50
2022-12-26T07:51:44.333Z,0.55
2022-12-26T07:54:12.154Z,0.50
2022-12-26T07:56:40.847Z,0.60
2022-12-26T07:59:14.039Z,0.60
2022-12-26T08:01:42.249Z,0.50
2022-12-26T08:04:11.178Z,0.60
2022-12-26T08:06:39.181Z,0.90
2022-12-26T08:09:06.793Z,0.30
2022-12-26T08:11:35.590Z,0.65
2022-12-26T08:14:03.443Z,0.55
2022-12-26T08:16:31.514Z,2.40
2022-12-26T08:18:58.980Z,0.40
2022-12-26T08:21:26.324Z,0.63
2022-12-26T08:23:53.654Z,0.52
2022-12-26T08:26:22.647Z,0.60
2022-12-26T08:28:51.778Z,0.25
2022-12-26T08:31:20.141Z,0.85
2022-12-26T08:33:47.540Z,0.40
2022-12-26T08:36:17.359Z,0.40
2022-12-26T08:38:46.117Z,0.50
2022-12-26T08:41:13.429Z,0.88
2022-12-26T08:46:28.391Z,0.43
2022-12-26T08:48:55.760Z,0.45
2022-12-26T08:51:25.173Z,0.55
2022-12-26T08:53:54.609Z,0.82
2022-12-26T08:56:25.323Z,0.60
2022-12-26T08:58:53.358Z,0.77
2022-12-26T09:01:23.474Z,0.40
2022-12-26T09:03:55.669Z,0.47
2022-12-26T09:08:51.217Z,0.32
2022-12-26T09:11:20.951Z,0.43
2022-12-26T09:13:48.716Z,0.98
2022-12-26T09:16:22.088Z,0.55
2022-12-26T09:18:54.657Z,0.60
2022-12-26T09:21:22.390Z,0.50
2022-12-26T09:23:50.011Z,0.50
2022-12-26T09:26:19.840Z,0.40
2022-12-26T09:28:48.027Z,0.40
2022-12-26T09:31:17.743Z,0.70
2022-12-26T09:33:47.187Z,0.40
2022-12-26T09:36:20.716Z,0.43
2022-12-26T09:38:49.079Z,0.70
2022-12-26T09:42:08.728Z,0.52
2022-12-26T09:44:56.332Z,0.57
2022-12-26T09:48:00.299Z,0.52
2022-12-26T09:50:34.479Z,0.40
2022-12-26T09:53:12.453Z,0.40
2022-12-26T09:56:02.412Z,0.50
2022-12-26T09:58:44.338Z,0.55
2022-12-26T10:01:20.672Z,0.30
2022-12-26T10:03:51.263Z,0.40
2022-12-26T10:06:21.413Z,0.70
2022-12-26T10:09:11.882Z,0.40
2022-12-26T10:22:06.806Z,0.88
2022-12-26T10:24:37.345Z,0.30
2022-12-26T10:27:13.034Z,0.90
2022-12-26T10:29:51.105Z,0.65
2022-12-26T10:32:33.265Z,0.55
2022-12-26T10:35:01.744Z,0.38
2022-12-26T10:37:42.177Z,0.40
2022-12-26T10:40:35.700Z,0.70
2022-12-26T10:43:28.877Z,0.98
2022-12-26T10:46:49.060Z,0.30
2022-12-26T10:49:20.468Z,0.50
2022-12-26T10:51:47.980Z,0.68
2022-12-26T10:54:18.570Z,0.60
2022-12-26T10:56:49.319Z,0.50
2022-12-26T10:59:30.697Z,0.47
2022-12-26T11:02:14.872Z,0.40
2022-12-26T11:05:27.167Z,0.40
2022-12-26T11:07:56.964Z,0.57
2022-12-26T11:10:28.122Z,0.65
2022-12-26T11:12:57.112Z,0.75
2022-12-26T11:15:54.221Z,0.68
2022-12-26T11:18:50.747Z,0.60
2022-12-26T11:21:23.979Z,0.50
2022-12-26T11:23:53.949Z,0.50
2022-12-26T11:26:32.369Z,0.30
2022-12-26T11:29:19.524Z,0.60
2022-12-26T11:31:57.567Z,0.80
2022-12-26T11:34:47.547Z,0.98
2022-12-26T11:37:30.533Z,0.55
2022-12-26T11:39:58.699Z,0.43
2022-12-26T11:42:26.838Z,0.40
2022-12-26T11:44:57.032Z,0.60
2022-12-26T11:47:28.433Z,0.40
2022-12-26T11:50:21.047Z,0.70
2022-12-26T11:53:19.495Z,0.45
2022-12-26T11:55:59.200Z,0.38
2022-12-26T11:58:29.635Z,0.35
2022-12-26T12:01:12.574Z,0.57
2022-12-26T12:03:48.927Z,0.60
2022-12-26T12:06:57.429Z,0.20
2022-12-26T12:09:49.813Z,0.25
2022-12-26T12:12:39.851Z,0.20
2022-12-26T12:15:29.012Z,0.30
2022-12-26T12:18:20.809Z,0.43
2022-12-26T12:21:29.734Z,0.43
2022-12-26T12:24:34.732Z,0.40
2022-12-26T12:27:28.728Z,0.47
2022-12-26T12:30:39.846Z,0.20
2022-12-26T12:33:24.888Z,0.30
2022-12-26T12:36:18.624Z,0.65
2022-12-26T12:39:32.312Z,0.22
2022-12-26T13:01:34.877Z,0.63
2022-12-26T13:04:39.211Z,0.20
2022-12-26T13:07:13.516Z,0.20
2022-12-26T13:09:58.271Z,0.20
2022-12-26T13:12:30.794Z,0.10
2022-12-26T13:15:02.551Z,0.13
2022-12-26T13:17:44.153Z,0.10
2022-12-26T13:20:22.009Z,0.10
2022-12-26T13:23:18.759Z,0.30
2022-12-26T13:26:09.417Z,0.30
2022-12-26T13:28:45.316Z,0.28
2022-12-26T13:31:13.619Z,0.00
2022-12-26T13:33:43.244Z,0.20
2022-12-26T13:36:30.761Z,0.10
2022-12-26T13:39:23.956Z,0.20
2022-12-26T13:42:18.320Z,0.20
2022-12-26T13:44:51.334Z,0.20
2022-12-26T13:47:36.184Z,0.10
2022-12-26T13:50:40.829Z,0.20
2022-12-26T13:53:32.723Z,0.28
2022-12-26T13:57:01.502Z,0.50
2022-12-26T13:59:54.353Z,0.63
2022-12-26T14:03:17.879Z,0.20
2022-12-26T14:06:12.402Z,0.20
2022-12-26T14:09:32.288Z,0.40
2022-12-26T14:12:33.867Z,0.40
2022-12-26T14:15:40.201Z,1.02
2022-12-26T14:18:35.735Z,0.30
2022-12-26T14:21:23.082Z,0.65
2022-12-26T14:27:38.312Z,1.13
2022-12-26T14:30:39.000Z,0.60
2022-12-26T14:33:43.846Z,0.60
2022-12-26T14:36:40.503Z,0.60
2022-12-26T14:39:34.872Z,0.40
2022-12-26T14:42:39.578Z,0.40
2022-12-26T14:45:33.634Z,0.50
2022-12-26T14:48:01.270Z,1.35
2022-12-26T14:50:37.905Z,0.55
2022-12-26T14:53:29.344Z,0.75
2022-12-26T14:56:34.999Z,0.43
2022-12-26T14:59:33.666Z,0.20
2022-12-26T15:02:10.515Z,0.10
2022-12-26T15:05:01.278Z,0.03
2022-12-26T15:07:58.916Z,0.08
2022-12-26T15:10:59.544Z,0.40
2022-12-26T15:14:00.043Z,0.10
2022-12-26T15:16:50.823Z,0.30
2022-12-26T15:19:50.715Z,0.65
2022-12-26T15:22:53.292Z,0.10
2022-12-26T15:28:46.093Z,0.40
2022-12-26T15:31:34.207Z,0.22
2022-12-26T15:34:32.600Z,0.20
2022-12-26T15:38:01.173Z,0.43
2022-12-26T15:40:32.994Z,0.20
2022-12-26T15:43:49.665Z,0.32
2022-12-26T15:46:36.099Z,0.28
2022-12-26T15:49:44.959Z,0.40
2022-12-26T15:52:39.001Z,0.40
2022-12-26T15:55:43.826Z,0.20
2022-12-26T15:58:36.706Z,0.20
2022-12-26T16:01:04.575Z,0.30
2022-12-26T16:03:50.661Z,0.30
2022-12-26T16:07:01.451Z,0.70
2022-12-26T16:09:49.983Z,0.30
2022-12-26T16:12:27.575Z,0.30
2022-12-26T16:15:14.726Z,0.50
2022-12-26T16:17:43.041Z,0.88
2022-12-26T16:20:58.740Z,1.00
2022-12-26T16:23:31.666Z,1.10
2022-12-26T16:26:00.696Z,1.00
2022-12-26T16:28:40.482Z,1.00
2022-12-26T16:31:09.357Z,1.00
2022-12-26T16:33:41.667Z,2.47
2022-12-26T16:36:11.533Z,2.30
2022-12-26T16:38:39.338Z,2.65
2022-12-26T16:41:30.884Z,2.50
2022-12-26T16:44:30.036Z,3.10
2022-12-26T16:47:06.072Z,3.65
2022-12-26T16:49:34.460Z,3.20
2022-12-26T16:52:01.975Z,2.85
2022-12-26T16:54:37.832Z,2.95
2022-12-26T16:57:19.602Z,2.17
2022-12-26T16:59:59.198Z,2.75
2022-12-26T17:02:34.975Z,3.15
2022-12-26T17:05:06.348Z,2.80
2022-12-26T17:07:37.452Z,2.85
2022-12-26T17:10:10.702Z,2.45
2022-12-26T17:12:41.097Z,3.30
2022-12-26T17:15:17.848Z,3.50
2022-12-26T17:17:46.268Z,2.72
2022-12-26T17:20:31.918Z,2.30
2022-12-26T17:22:59.662Z,1.98
2022-12-26T17:25:33.680Z,2.05
2022-12-26T17:28:30.413Z,1.63
2022-12-26T17:31:18.433Z,1.60
2022-12-26T17:33:48.068Z,1.83
2022-12-26T17:39:13.084Z,1.45
2022-12-26T17:41:51.142Z,0.75
2022-12-26T17:44:42.756Z,0.50
2022-12-26T17:47:23.917Z,0.55
2022-12-26T17:49:53.316Z,0.43
2022-12-26T17:52:27.161Z,0.60
2022-12-26T17:54:57.707Z,0.50
2022-12-26T17:57:27.845Z,0.40
2022-12-26T17:59:56.146Z,0.32
2022-12-26T18:02:23.754Z,0.40
2022-12-26T18:04:51.377Z,0.35
2022-12-26T18:07:27.205Z,0.32
2022-12-26T18:09:58.899Z,0.40
2022-12-26T18:12:26.247Z,0.30
2022-12-26T18:14:59.341Z,0.20
2022-12-26T18:17:31.684Z,0.45
2022-12-26T18:19:59.230Z,0.20
2022-12-26T18:22:26.541Z,0.20
2022-12-26T18:24:53.865Z,0.32
2022-12-26T18:27:29.708Z,0.20
2022-12-26T18:29:58.087Z,0.50
2022-12-26T18:32:30.411Z,0.40
2022-12-26T18:34:58.614Z,0.30
2022-12-26T18:37:28.383Z,0.57
2022-12-26T18:39:55.939Z,0.30
2022-12-26T18:42:25.343Z,0.30
2022-12-26T18:44:52.772Z,0.38
2022-12-26T18:47:21.836Z,0.47
2022-12-26T18:49:49.623Z,0.20
2022-12-26T18:52:17.723Z,0.28
2022-12-26T18:54:45.540Z,0.20
2022-12-26T18:57:19.966Z,0.10
2022-12-26T18:59:48.436Z,0.30
2022-12-26T19:02:19.570Z,0.20
2022-12-26T19:04:48.740Z,0.17
2022-12-26T19:07:17.617Z,1.05
2022-12-26T19:09:46.814Z,0.22
2022-12-26T19:12:14.963Z,0.32
2022-12-26T19:14:44.650Z,0.25
2022-12-26T19:17:12.074Z,0.10
2022-12-26T19:19:39.446Z,0.95
2022-12-26T19:22:06.968Z,0.10
2022-12-26T19:24:34.422Z,0.50
2022-12-26T19:27:03.059Z,0.10
2022-12-26T19:29:30.635Z,0.10
2022-12-26T19:31:58.052Z,0.47
2022-12-26T19:34:25.565Z,0.17
2022-12-26T19:36:53.024Z,0.10
2022-12-26T19:39:20.852Z,0.10
2022-12-26T19:41:48.689Z,0.20
2022-12-26T19:44:16.317Z,0.10
2022-12-26T19:46:43.691Z,0.15
2022-12-26T19:49:11.236Z,0.10
2022-12-26T19:51:38.842Z,0.10
2022-12-26T19:54:07.001Z,0.20
2022-12-26T19:56:34.559Z,0.13
2022-12-26T19:59:02.088Z,0.28
2022-12-26T20:01:31.465Z,0.10
2022-12-26T20:04:02.301Z,0.10
2022-12-26T20:06:31.989Z,0.10
2022-12-26T20:09:01.789Z,0.17
2022-12-26T20:11:31.936Z,0.30
2022-12-26T20:14:01.209Z,0.03
2022-12-26T20:17:03.924Z,0.08
2022-12-26T20:19:16.598Z,0.10
2022-12-26T20:21:43.915Z,0.20
2022-12-26T20:24:12.193Z,0.05
2022-12-26T20:26:40.729Z,0.10
2022-12-26T20:29:08.847Z,0.10
2022-12-26T20:31:38.003Z,0.08
2022-12-26T20:34:06.492Z,0.20
2022-12-26T20:36:36.704Z,0.10
2022-12-26T20:39:08.180Z,0.10
2022-12-26T20:41:35.556Z,0.05
2022-12-26T20:44:02.992Z,0.68
2022-12-26T20:46:32.386Z,0.20
2022-12-26T20:49:01.940Z,0.17
2022-12-26T20:51:36.998Z,0.20
2022-12-26T20:54:06.509Z,0.30
2022-12-26T20:56:34.839Z,0.30
2022-12-26T20:59:03.352Z,0.10
2022-12-26T21:01:30.901Z,0.40
2022-12-26T21:03:58.628Z,0.32
2022-12-26T21:06:32.008Z,0.50
2022-12-26T21:08:59.743Z,0.50
2022-12-26T21:11:33.062Z,0.30
2022-12-26T21:14:04.222Z,0.20
2022-12-26T21:16:37.933Z,0.50
2022-12-26T21:19:10.845Z,0.30
2022-12-26T21:21:44.391Z,0.40
2022-12-26T21:24:15.611Z,0.40
2022-12-26T21:26:44.251Z,0.65
2022-12-26T21:29:15.452Z,0.77
2022-12-26T21:31:42.977Z,0.60
2022-12-26T21:34:13.131Z,0.43
2022-12-26T21:36:40.985Z,0.20
2022-12-26T21:39:10.150Z,0.28
2022-12-26T21:41:38.150Z,0.40
2022-12-26T21:44:05.702Z,0.63
2022-12-26T21:46:33.151Z,0.30
2022-12-26T21:49:01.138Z,0.68
2022-12-26T21:51:29.703Z,0.30
2022-12-26T21:54:17.028Z,0.65
2022-12-26T21:56:44.336Z,0.40
2022-12-26T21:59:30.161Z,0.95
2022-12-26T22:01:57.619Z,0.50
2022-12-26T22:04:25.191Z,0.30
2022-12-26T22:06:52.896Z,0.20
2022-12-26T22:09:20.427Z,0.30
2022-12-26T22:12:06.198Z,0.30
2022-12-26T22:14:34.120Z,0.30
2022-12-26T22:17:01.410Z,0.20
2022-12-26T22:19:28.779Z,0.53
2022-12-26T22:21:56.304Z,0.40
2022-12-26T22:24:23.667Z,0.70
2022-12-26T22:26:50.965Z,0.30
2022-12-26T22:29:18.395Z,1.00
2022-12-26T22:31:45.788Z,0.13
2022-12-26T22:34:14.847Z,0.50
2022-12-26T22:36:42.799Z,0.50
2022-12-26T22:39:17.029Z,0.93
2022-12-26T22:41:45.828Z,0.30
2022-12-26T22:44:14.450Z,0.33
2022-12-26T22:46:42.720Z,0.57
2022-12-26T22:49:10.313Z,0.30
2022-12-26T22:51:38.272Z,0.20
2022-12-26T22:54:05.695Z,0.40
2022-12-26T22:56:33.802Z,0.40
2022-12-26T22:59:01.279Z,0.57
2022-12-26T23:01:28.959Z,0.20
2022-12-26T23:03:56.625Z,0.73
2022-12-26T23:06:29.290Z,0.23
2022-12-26T23:08:58.814Z,0.47
2022-12-26T23:11:34.655Z,0.30
2022-12-26T23:14:05.436Z,0.40
2022-12-26T23:16:39.622Z,0.40
2022-12-26T23:19:37.298Z,0.57
2022-12-26T23:22:05.258Z,0.20
2022-12-26T23:24:33.594Z,1.33
2022-12-26T23:27:23.021Z,0.67
2022-12-26T23:30:10.547Z,0.80
2022-12-26T23:32:39.531Z,0.93
2022-12-26T23:35:09.630Z,0.20
2022-12-26T23:37:37.621Z,0.40
2022-12-26T23:40:05.821Z,0.37
2022-12-26T23:42:33.252Z,0.20
2022-12-26T23:45:00.956Z,0.50
2022-12-26T23:47:28.456Z,0.37
2022-12-26T23:49:56.079Z,0.30
2022-12-26T23:52:29.866Z,0.20
2022-12-26T23:54:58.063Z,0.40
2022-12-26T23:57:25.497Z,0.10
2022-12-26T23:59:53.356Z,0.97
